Time;durP1;ratioP1;P1;durP2;ratioP2;P2;SDS_P1;SDS_P2;PMS_P1;PMS_P2;Temp;Humidity;BMP_temperature;BMP_pressure;BME280_temperature;BME280_humidity;BME280_pressure;Samples;Min_cycle;Max_cycle;Signal;HPM_P1;HPM_P2
2022/01/24 00:01:04;;;;;;;;;16.40;16.40;;;;;;;;5254510;28;8792;-73
2022/01/24 00:03:36;;;;;;;;;18.20;15.20;;;;;;;;5271199;28;8804;-73
2022/01/24 00:06:10;;;;;;;;;15.00;15.00;;;;;;;;5254701;28;8782;-73
2022/01/24 00:08:41;;;;;;;;;13.60;13.60;;;;;;;;5254276;28;8780;-73
2022/01/24 00:11:17;;;;;;;;;15.00;14.60;;;;;;;;5254273;28;8772;-73
2022/01/24 00:17:02;;;;;;;;;13.40;12.80;;;;;;;;5274334;28;8834;-72
2022/01/24 00:28:21;;;;;;;;;12.40;12.40;;;;;;;;5254171;28;8769;-72
2022/01/24 00:30:52;;;;;;;;;16.20;15.20;;;;;;;;5270691;28;8786;-72
2022/01/24 00:33:24;;;;;;;;;19.40;18.60;;;;;;;;5254184;28;8800;-69
2022/01/24 00:35:55;;;;;;;;;16.60;16.20;;;;;;;;5270193;28;8764;-69
2022/01/24 00:38:26;;;;;;;;;17.20;17.20;;;;;;;;5253414;28;8792;-69
2022/01/24 00:40:57;;;;;;;;;12.40;12.40;;;;;;;;5253319;28;8942;-72
2022/01/24 00:46:56;;;;;;;;;11.80;11.80;;;;;;;;5200419;28;8814;-72
2022/01/24 00:49:48;;;;;;;;;20.80;18.00;;;;;;;;5253471;28;8776;-72
2022/01/24 00:55:10;;;;;;;;;22.40;22.00;;;;;;;;5270156;28;8775;-73
2022/01/24 00:57:41;;;;;;;;;21.00;21.00;;;;;;;;5253694;28;8780;-72
2022/01/24 01:00:13;;;;;;;;;14.80;14.60;;;;;;;;5236300;28;8768;-72
2022/01/24 01:02:44;;;;;;;;;19.40;19.40;;;;;;;;5270710;28;8800;-73
2022/01/24 01:19:29;;;;;;;;;18.40;18.40;;;;;;;;5270330;28;8772;-73
2022/01/24 01:22:00;;;;;;;;;18.40;17.00;;;;;;;;5236238;28;9455;-74
2022/01/24 01:24:36;;;;;;;;;17.75;17.75;;;;;;;;5252947;28;8878;-74
2022/01/24 01:27:16;;;;;;;;;15.00;15.00;;;;;;;;5236593;28;9552;-75
2022/01/24 01:30:05;;;;;;;;;13.40;13.40;;;;;;;;5274460;28;9629;-73
2022/01/24 01:57:13;;;;;;;;;25.00;21.80;;;;;;;;5257763;28;8788;-73
2022/01/24 01:59:44;;;;;;;;;19.80;18.40;;;;;;;;5273150;28;8808;-73
2022/01/24 02:02:15;;;;;;;;;25.40;17.20;;;;;;;;5291991;28;8785;-71
2022/01/24 02:04:46;;;;;;;;;24.75;24.75;;;;;;;;5273109;28;8796;-72
2022/01/24 02:07:50;;;;;;;;;25.00;22.20;;;;;;;;5275887;28;8851;-71
2022/01/24 02:10:22;;;;;;;;;22.40;21.20;;;;;;;;5240058;28;8780;-70
2022/01/24 02:12:55;;;;;;;;;24.00;23.60;;;;;;;;5273120;28;8803;-72
2022/01/24 02:15:50;;;;;;;;;24.80;23.20;;;;;;;;5273376;28;8780;-72
2022/01/24 02:18:43;;;;;;;;;20.60;20.60;;;;;;;;5256263;28;8784;-72
2022/01/24 02:21:46;;;;;;;;;27.80;26.00;;;;;;;;5258835;28;8830;-72
2022/01/24 02:24:18;;;;;;;;;25.00;24.60;;;;;;;;5256025;28;9494;-72
2022/01/24 02:26:54;;;;;;;;;22.80;22.80;;;;;;;;5255818;28;8785;-71
2022/01/24 02:32:00;;;;;;;;;14.40;12.80;;;;;;;;5291113;28;8773;-74
2022/01/24 02:34:38;;;;;;;;;21.75;21.50;;;;;;;;5256399;28;8772;-73
2022/01/24 02:37:11;;;;;;;;;23.60;23.60;;;;;;;;5255908;28;9104;-74
2022/01/24 02:39:46;;;;;;;;;15.20;15.00;;;;;;;;5237908;28;8772;-73
2022/01/24 02:48:30;;;;;;;;;19.40;18.40;;;;;;;;5255634;28;8785;-72
2022/01/24 02:53:37;;;;;;;;;22.20;21.60;;;;;;;;5255101;28;8769;-73
2022/01/24 02:56:09;;;;;;;;;16.40;15.40;;;;;;;;5290067;28;8786;-72
2022/01/24 02:58:39;;;;;;;;;19.60;18.00;;;;;;;;5254960;28;8907;-72
2022/01/24 03:01:11;;;;;;;;;20.60;19.40;;;;;;;;5271672;28;8926;-72
2022/01/24 03:03:43;;;;;;;;;21.60;21.60;;;;;;;;5255084;28;8839;-72
2022/01/24 03:06:32;;;;;;;;;26.00;24.40;;;;;;;;5271897;28;8773;-72
2022/01/24 03:09:05;;;;;;;;;18.80;18.00;;;;;;;;5254964;28;9486;-72
2022/01/24 03:14:27;;;;;;;;;23.60;22.60;;;;;;;;5255202;28;8752;-71
2022/01/24 03:16:59;;;;;;;;;27.80;27.00;;;;;;;;5289895;28;8835;-71
2022/01/24 03:19:30;;;;;;;;;27.20;27.20;;;;;;;;5255160;28;8780;-70
2022/01/24 03:22:02;;;;;;;;;27.80;26.60;;;;;;;;5289737;28;8783;-71
2022/01/24 03:24:34;;;;;;;;;19.60;18.40;;;;;;;;5238141;28;8820;-71
2022/01/24 03:27:05;;;;;;;;;20.00;19.60;;;;;;;;5289677;28;8769;-72
2022/01/24 03:29:36;;;;;;;;;21.00;21.00;;;;;;;;5254597;28;8788;-70
2022/01/24 03:32:07;;;;;;;;;13.80;13.80;;;;;;;;5289660;28;8776;-70
2022/01/24 03:34:40;;;;;;;;;14.20;13.40;;;;;;;;5271732;28;9536;-70
2022/01/24 03:37:11;;;;;;;;;16.80;15.80;;;;;;;;5254574;28;8965;-71
2022/01/24 03:39:42;;;;;;;;;11.20;11.20;;;;;;;;5254053;28;8921;-70
2022/01/24 03:42:13;;;;;;;;;27.00;26.40;;;;;;;;5255306;28;9189;-70
2022/01/24 03:45:06;;;;;;;;;23.80;22.00;;;;;;;;5271510;28;8791;-74
2022/01/24 03:50:17;;;;;;;;;47.40;38.00;;;;;;;;5271279;28;8911;-73
2022/01/24 03:52:49;;;;;;;;;34.20;32.60;;;;;;;;5237669;28;8791;-74
2022/01/24 03:55:20;;;;;;;;;27.40;23.60;;;;;;;;5270801;28;8784;-74
2022/01/24 03:57:51;;;;;;;;;25.80;24.40;;;;;;;;5238090;28;8819;-73
2022/01/24 04:00:22;;;;;;;;;24.00;22.00;;;;;;;;5288880;28;8815;-69
2022/01/24 04:02:54;;;;;;;;;14.60;12.40;;;;;;;;5270932;28;8816;-73
2022/01/24 04:05:25;;;;;;;;;18.20;15.00;;;;;;;;5271199;28;9379;-73
2022/01/24 04:07:56;;;;;;;;;15.60;15.60;;;;;;;;5237629;28;9535;-74
2022/01/24 04:10:28;;;;;;;;;15.75;15.50;;;;;;;;5237270;28;8768;-73
2022/01/24 04:13:08;;;;;;;;;17.20;12.60;;;;;;;;5253829;28;12198;-71
2022/01/24 04:15:47;;;;;;;;;19.00;18.40;;;;;;;;5253828;28;8769;-71
2022/01/24 04:18:40;;;;;;;;;7.80;6.80;;;;;;;;5253956;28;8903;-72
2022/01/24 04:26:50;;;;;;;;;15.00;15.00;;;;;;;;5257305;28;8788;-72
2022/01/24 04:29:21;;;;;;;;;18.60;18.60;;;;;;;;5270230;28;9491;-72
2022/01/24 04:31:52;;;;;;;;;13.00;13.00;;;;;;;;5269874;28;8853;-71
2022/01/24 04:34:23;;;;;;;;;12.00;11.60;;;;;;;;5270219;28;10495;-72
2022/01/24 04:36:54;;;;;;;;;4.60;4.60;;;;;;;;5270107;28;9576;-72
2022/01/24 04:39:25;;;;;;;;;16.80;16.80;;;;;;;;5253620;28;8785;-73
2022/01/24 04:41:58;;;;;;;;;14.80;14.80;;;;;;;;5236807;28;9507;-73
2022/01/24 04:44:50;;;;;;;;;18.00;16.40;;;;;;;;5269975;28;8864;-75
2022/01/24 04:47:35;;;;;;;;;10.60;10.60;;;;;;;;5254104;28;9451;-73
2022/01/24 04:53:07;;;;;;;;;13.80;13.80;;;;;;;;5253261;28;8901;-73
2022/01/24 04:55:38;;;;;;;;;18.80;18.40;;;;;;;;5253674;28;8749;-74
2022/01/24 04:58:09;;;;;;;;;25.60;24.00;;;;;;;;5270062;28;8891;-73
2022/01/24 05:00:40;;;;;;;;;19.00;18.60;;;;;;;;5253524;28;8799;-75
2022/01/24 05:03:30;;;;;;;;;13.00;13.00;;;;;;;;5257866;28;8796;-69
2022/01/24 05:06:01;;;;;;;;;12.60;12.60;;;;;;;;5274578;28;8891;-69
2022/01/24 05:08:33;;;;;;;;;17.80;17.00;;;;;;;;5274117;28;8803;-74
2022/01/24 05:11:08;;;;;;;;;16.20;16.20;;;;;;;;5257413;28;8777;-74
2022/01/24 05:24:39;;;;;;;;;37.20;34.80;;;;;;;;5274002;28;9490;-72
2022/01/24 05:27:10;;;;;;;;;27.60;27.60;;;;;;;;5257380;28;9545;-72
2022/01/24 05:29:41;;;;;;;;;18.00;18.00;;;;;;;;5257162;28;8881;-71
2022/01/24 05:32:12;;;;;;;;;24.00;23.75;;;;;;;;5274635;28;8784;-72
2022/01/24 05:34:43;;;;;;;;;27.40;24.80;;;;;;;;5256984;28;11567;-72
2022/01/24 05:37:14;;;;;;;;;24.60;24.60;;;;;;;;5273716;28;8914;-73
2022/01/24 05:39:45;;;;;;;;;18.20;18.00;;;;;;;;5239941;28;8776;-73
2022/01/24 05:42:21;;;;;;;;;21.00;18.20;;;;;;;;5240261;28;8795;-73
2022/01/24 05:44:53;;;;;;;;;15.60;15.60;;;;;;;;5273943;28;8811;-74
2022/01/24 05:47:24;;;;;;;;;22.00;21.40;;;;;;;;5257308;28;8865;-73
2022/01/24 05:49:56;;;;;;;;;27.40;24.80;;;;;;;;5273528;28;8764;-72
2022/01/24 05:52:27;;;;;;;;;37.80;33.40;;;;;;;;5240330;28;8780;-73
2022/01/24 05:54:58;;;;;;;;;35.00;33.75;;;;;;;;5273379;28;8780;-75
2022/01/24 05:57:29;;;;;;;;;34.20;28.20;;;;;;;;5273327;28;10044;-76
2022/01/24 06:00:01;;;;;;;;;58.80;50.40;;;;;;;;5256693;28;8807;-73
2022/01/24 06:02:32;;;;;;;;;18.20;18.20;;;;;;;;5239753;28;8838;-73
2022/01/24 06:05:04;;;;;;;;;31.20;28.00;;;;;;;;5240076;28;8796;-74
2022/01/24 06:07:36;;;;;;;;;28.80;28.40;;;;;;;;5240232;28;8887;-74
2022/01/24 06:10:07;;;;;;;;;27.20;27.00;;;;;;;;5255830;28;8909;-74
2022/01/24 06:12:39;;;;;;;;;31.40;30.80;;;;;;;;5239729;28;8781;-72
2022/01/24 06:15:10;;;;;;;;;26.20;25.40;;;;;;;;5254614;28;8764;-70
2022/01/24 06:17:42;;;;;;;;;37.60;34.80;;;;;;;;5273325;28;9042;-75
2022/01/24 06:20:13;;;;;;;;;34.20;34.20;;;;;;;;5239381;28;8910;-78
2022/01/24 06:22:44;;;;;;;;;22.00;22.00;;;;;;;;5255892;28;8772;-76
2022/01/24 06:25:20;;;;;;;;;17.00;16.80;;;;;;;;5256248;28;9641;-76
2022/01/24 06:27:52;;;;;;;;;30.40;28.00;;;;;;;;5239490;28;8764;-75
2022/01/24 06:30:23;;;;;;;;;26.20;25.00;;;;;;;;5240074;28;8784;-76
2022/01/24 06:32:54;;;;;;;;;20.00;20.00;;;;;;;;5239014;28;8772;-74
2022/01/24 06:35:25;;;;;;;;;17.20;17.20;;;;;;;;5256646;28;8869;-75
2022/01/24 06:37:56;;;;;;;;;21.75;21.75;;;;;;;;5239127;28;8768;-75
2022/01/24 06:40:27;;;;;;;;;20.60;18.40;;;;;;;;5272245;28;8823;-75
2022/01/24 06:42:59;;;;;;;;;31.40;28.40;;;;;;;;5272513;28;8934;-75
2022/01/24 06:45:30;;;;;;;;;33.40;28.80;;;;;;;;5255529;28;8783;-74
2022/01/24 06:48:01;;;;;;;;;21.80;21.80;;;;;;;;5255668;28;8789;-74
2022/01/24 06:50:51;;;;;;;;;32.60;28.40;;;;;;;;5258068;28;8772;-75
2022/01/24 06:53:22;;;;;;;;;38.40;37.60;;;;;;;;5272424;28;8773;-74
2022/01/24 06:55:53;;;;;;;;;19.60;19.60;;;;;;;;5255598;28;8799;-75
2022/01/24 06:58:24;;;;;;;;;30.40;30.40;;;;;;;;5256005;28;8783;-73
2022/01/24 07:00:55;;;;;;;;;26.60;25.80;;;;;;;;5255294;28;8829;-75
2022/01/24 07:03:27;;;;;;;;;15.80;14.40;;;;;;;;5238830;28;8800;-75
2022/01/24 07:05:58;;;;;;;;;16.80;16.80;;;;;;;;5255146;28;8765;-76
2022/01/24 07:08:29;;;;;;;;;43.00;40.80;;;;;;;;5238514;28;8764;-76
2022/01/24 07:11:00;;;;;;;;;25.60;22.80;;;;;;;;5254956;28;8784;-76
2022/01/24 07:13:53;;;;;;;;;36.40;32.80;;;;;;;;5275214;28;8772;-76
2022/01/24 07:16:35;;;;;;;;;15.20;14.60;;;;;;;;5254886;28;8777;-75
2022/01/24 07:19:06;;;;;;;;;32.80;32.80;;;;;;;;5238573;28;8787;-75
2022/01/24 07:21:37;;;;;;;;;33.80;30.40;;;;;;;;5238482;28;8760;-75
2022/01/24 07:24:08;;;;;;;;;30.75;28.25;;;;;;;;5255374;28;8800;-76
2022/01/24 07:26:39;;;;;;;;;30.00;28.00;;;;;;;;5237400;28;8781;-74
2022/01/24 07:29:11;;;;;;;;;20.60;18.80;;;;;;;;5271873;28;8785;-74
2022/01/24 07:31:42;;;;;;;;;8.00;8.00;;;;;;;;5254680;28;9503;-74
2022/01/24 07:34:31;;;;;;;;;33.40;28.20;;;;;;;;5274524;28;8875;-73
2022/01/24 07:37:02;;;;;;;;;38.40;35.20;;;;;;;;5254310;28;8784;-75
2022/01/24 07:39:34;;;;;;;;;28.60;24.60;;;;;;;;5237804;28;8799;-75
2022/01/24 07:42:15;;;;;;;;;23.60;21.00;;;;;;;;5254108;28;8808;-74
2022/01/24 07:44:46;;;;;;;;;24.80;24.20;;;;;;;;5271133;28;8816;-74
2022/01/24 07:47:17;;;;;;;;;27.40;25.80;;;;;;;;5254921;28;8800;-74
2022/01/24 07:49:48;;;;;;;;;28.80;27.60;;;;;;;;5255530;28;8901;-74
2022/01/24 07:52:20;;;;;;;;;26.20;23.40;;;;;;;;5272414;28;8799;-74
2022/01/24 07:54:51;;;;;;;;;35.80;33.20;;;;;;;;5239070;28;8792;-74
2022/01/24 07:57:22;;;;;;;;;25.75;23.00;;;;;;;;5237853;28;8789;-74
2022/01/24 08:00:12;;;;;;;;;26.20;25.80;;;;;;;;5256758;28;11587;-75
2022/01/24 08:02:43;;;;;;;;;19.00;19.00;;;;;;;;5271081;28;8783;-73
2022/01/24 08:05:14;;;;;;;;;33.60;31.00;;;;;;;;5254329;28;8788;-74
2022/01/24 08:07:45;;;;;;;;;33.00;32.20;;;;;;;;5254313;28;8796;-75
2022/01/24 08:10:16;;;;;;;;;21.00;21.00;;;;;;;;5271105;28;8765;-74
2022/01/24 08:12:47;;;;;;;;;26.80;25.60;;;;;;;;5237338;28;8773;-74
2022/01/24 08:15:18;;;;;;;;;41.20;38.80;;;;;;;;5237276;28;8796;-75
2022/01/24 08:17:49;;;;;;;;;29.50;28.00;;;;;;;;5253588;28;8768;-71
2022/01/24 08:20:20;;;;;;;;;15.50;12.50;;;;;;;;5236899;28;8857;-72
2022/01/24 08:27:15;;;;;;;;;53.80;46.40;;;;;;;;5288450;28;8713;-71
2022/01/24 08:29:48;;;;;;;;;32.80;31.40;;;;;;;;5237264;28;8883;-72
2022/01/24 08:32:19;;;;;;;;;24.20;20.60;;;;;;;;5270281;28;8788;-72
2022/01/24 08:34:50;;;;;;;;;33.00;32.00;;;;;;;;5253961;28;8776;-72
2022/01/24 08:37:21;;;;;;;;;28.60;27.60;;;;;;;;5269435;28;11520;-71
2022/01/24 08:39:53;;;;;;;;;11.60;11.60;;;;;;;;5236291;28;8799;-72
2022/01/24 08:48:20;;;;;;;;;29.80;29.60;;;;;;;;5253396;28;8797;-68
2022/01/24 08:50:54;;;;;;;;;38.20;37.40;;;;;;;;5270126;28;8772;-69
2022/01/24 08:53:29;;;;;;;;;49.40;44.80;;;;;;;;5270168;28;9640;-69
2022/01/24 08:56:02;;;;;;;;;60.80;53.60;;;;;;;;5253499;28;8873;-71
2022/01/24 08:58:34;;;;;;;;;64.40;53.80;;;;;;;;5253236;28;8875;-73
2022/01/24 09:01:05;;;;;;;;;37.40;36.20;;;;;;;;5253275;28;8873;-75
2022/01/24 09:03:39;;;;;;;;;36.80;33.00;;;;;;;;5253044;28;9471;-75
2022/01/24 09:06:11;;;;;;;;;27.20;26.80;;;;;;;;5288215;28;8765;-75
2022/01/24 09:08:42;;;;;;;;;12.20;12.20;;;;;;;;5236740;28;8784;-76
2022/01/24 09:11:13;;;;;;;;;21.20;21.00;;;;;;;;5269746;28;8780;-75
2022/01/24 09:13:44;;;;;;;;;22.40;22.40;;;;;;;;5236757;28;8879;-75
2022/01/24 09:16:15;;;;;;;;;12.50;11.75;;;;;;;;5236374;28;8797;-75
2022/01/24 09:18:46;;;;;;;;;18.40;18.20;;;;;;;;5236181;28;8797;-75
2022/01/24 09:21:17;;;;;;;;;25.75;24.00;;;;;;;;5269927;28;8806;-74
2022/01/24 09:28:12;;;;;;;;;23.80;23.80;;;;;;;;5287834;28;8705;-74
2022/01/24 09:31:08;;;;;;;;;31.00;28.00;;;;;;;;5253024;28;8793;-77
2022/01/24 09:33:39;;;;;;;;;21.80;21.40;;;;;;;;5244335;28;11432;-76
2022/01/24 09:40:34;;;;;;;;;21.20;21.20;;;;;;;;5266756;28;8767;-76
2022/01/24 09:43:05;;;;;;;;;13.80;13.80;;;;;;;;5232266;28;8972;-76
2022/01/24 09:45:37;;;;;;;;;18.00;18.00;;;;;;;;5232289;28;8779;-76
2022/01/24 09:48:10;;;;;;;;;21.40;21.40;;;;;;;;5249187;28;8931;-76
2022/01/24 09:50:41;;;;;;;;;26.80;25.80;;;;;;;;5236424;28;8802;-75
2022/01/24 09:53:15;;;;;;;;;22.00;22.00;;;;;;;;5236264;28;8794;-75
2022/01/24 09:55:46;;;;;;;;;30.60;28.00;;;;;;;;5236367;28;8774;-74
2022/01/24 09:58:37;;;;;;;;;21.40;21.40;;;;;;;;5238301;28;8783;-75
2022/01/24 10:01:08;;;;;;;;;24.80;24.20;;;;;;;;5253536;28;8795;-76
2022/01/24 10:03:39;;;;;;;;;22.20;22.20;;;;;;;;5236208;28;8822;-76
2022/01/24 10:06:10;;;;;;;;;30.60;27.20;;;;;;;;5236680;28;8774;-75
2022/01/24 10:08:41;;;;;;;;;22.40;22.00;;;;;;;;5235872;28;8796;-76
2022/01/24 10:11:17;;;;;;;;;16.60;16.60;;;;;;;;5236204;28;9493;-78
2022/01/24 10:16:44;;;;;;;;;24.40;24.20;;;;;;;;5236064;28;8914;-76
2022/01/24 10:19:15;;;;;;;;;21.80;20.80;;;;;;;;5236326;28;8798;-75
2022/01/24 10:21:46;;;;;;;;;22.40;21.20;;;;;;;;5235239;28;9528;-75
2022/01/24 10:24:26;;;;;;;;;24.60;20.40;;;;;;;;5235682;28;8802;-75
2022/01/24 10:27:20;;;;;;;;;22.00;22.00;;;;;;;;5251541;28;8944;-75
2022/01/24 10:29:54;;;;;;;;;13.80;13.80;;;;;;;;5235246;28;8785;-73
2022/01/24 10:32:46;;;;;;;;;37.00;34.40;;;;;;;;5270159;28;9719;-70
2022/01/24 10:35:20;;;;;;;;;29.40;29.40;;;;;;;;5252184;28;8786;-74
2022/01/24 10:37:54;;;;;;;;;25.40;25.40;;;;;;;;5234720;28;8779;-75
2022/01/24 10:40:31;;;;;;;;;25.40;25.00;;;;;;;;5217961;28;9358;-75
2022/01/24 10:43:16;;;;;;;;;33.40;33.40;;;;;;;;5251867;28;8791;-77
2022/01/24 10:45:47;;;;;;;;;33.20;33.00;;;;;;;;5252172;28;8889;-75
2022/01/24 10:48:23;;;;;;;;;28.80;27.80;;;;;;;;5234849;28;8791;-76
2022/01/24 10:51:08;;;;;;;;;29.20;28.80;;;;;;;;5235512;28;8771;-76
2022/01/24 10:53:40;;;;;;;;;19.20;19.20;;;;;;;;5235563;28;8774;-76
2022/01/24 10:56:23;;;;;;;;;23.60;21.60;;;;;;;;5235043;28;9466;-74
2022/01/24 10:59:12;;;;;;;;;26.20;25.20;;;;;;;;5234613;28;8771;-74
2022/01/24 11:01:49;;;;;;;;;26.20;26.20;;;;;;;;5235115;28;8785;-75
2022/01/24 11:04:21;;;;;;;;;25.00;22.80;;;;;;;;5234536;28;9493;-75
2022/01/24 11:06:54;;;;;;;;;28.60;27.40;;;;;;;;5251104;28;8790;-75
2022/01/24 11:09:26;;;;;;;;;27.60;27.00;;;;;;;;5250920;28;9571;-76
2022/01/24 11:12:00;;;;;;;;;15.20;15.20;;;;;;;;5234682;28;8905;-76
2022/01/24 11:14:31;;;;;;;;;22.40;22.40;;;;;;;;5251982;28;8775;-76
2022/01/24 11:17:03;;;;;;;;;18.20;18.00;;;;;;;;5234295;28;8774;-76
2022/01/24 11:22:19;;;;;;;;;21.00;21.00;;;;;;;;5233861;28;8778;-75
2022/01/24 11:24:55;;;;;;;;;24.20;19.20;;;;;;;;5234313;28;8786;-75
2022/01/24 11:27:47;;;;;;;;;27.60;25.80;;;;;;;;5250948;28;8763;-75
2022/01/24 11:30:44;;;;;;;;;27.00;26.20;;;;;;;;5234301;28;8881;-75
2022/01/24 11:33:22;;;;;;;;;24.60;22.00;;;;;;;;5230949;28;8767;-75
2022/01/24 11:36:00;;;;;;;;;22.20;21.60;;;;;;;;5233971;28;8774;-75
2022/01/24 11:38:31;;;;;;;;;23.80;23.20;;;;;;;;5234410;28;8831;-76
2022/01/24 11:41:04;;;;;;;;;43.40;38.20;;;;;;;;5233436;28;9640;-75
2022/01/24 11:43:37;;;;;;;;;35.80;30.80;;;;;;;;5250329;28;8814;-75
2022/01/24 11:46:28;;;;;;;;;28.00;28.00;;;;;;;;5268058;28;8771;-75
2022/01/24 11:49:04;;;;;;;;;32.80;27.40;;;;;;;;5234473;28;8843;-75
2022/01/24 11:51:37;;;;;;;;;23.60;23.60;;;;;;;;5250333;28;8767;-76
2022/01/24 11:54:30;;;;;;;;;30.60;30.00;;;;;;;;5233423;28;8783;-76
2022/01/24 11:57:20;;;;;;;;;27.40;22.60;;;;;;;;5250374;28;9463;-76
2022/01/24 11:59:53;;;;;;;;;26.20;23.00;;;;;;;;5233821;28;8913;-76
2022/01/24 12:02:24;;;;;;;;;24.60;22.00;;;;;;;;5233408;28;8859;-76
2022/01/24 12:04:55;;;;;;;;;30.40;29.40;;;;;;;;5250067;28;8890;-76
2022/01/24 12:07:30;;;;;;;;;26.50;24.75;;;;;;;;5233489;28;8771;-75
2022/01/24 12:10:20;;;;;;;;;30.20;28.60;;;;;;;;5233711;28;10852;-76
2022/01/24 12:12:54;;;;;;;;;22.80;21.00;;;;;;;;5233782;28;8770;-76
2022/01/24 12:15:43;;;;;;;;;17.80;16.40;;;;;;;;5266740;28;8767;-75
2022/01/24 12:18:21;;;;;;;;;22.40;21.40;;;;;;;;5233692;28;8852;-75
2022/01/24 12:21:06;;;;;;;;;15.60;14.60;;;;;;;;5233899;28;8779;-76
2022/01/24 12:23:37;;;;;;;;;27.80;25.20;;;;;;;;5234647;28;8798;-77
2022/01/24 12:26:14;;;;;;;;;17.00;15.75;;;;;;;;5233785;28;8835;-76
2022/01/24 12:28:53;;;;;;;;;15.40;15.40;;;;;;;;5234029;28;8801;-76
2022/01/24 12:31:45;;;;;;;;;22.80;22.40;;;;;;;;5267855;28;8790;-75
2022/01/24 12:34:19;;;;;;;;;25.00;25.00;;;;;;;;5233805;28;8873;-76
2022/01/24 12:37:00;;;;;;;;;29.80;28.60;;;;;;;;5234517;28;8797;-77
2022/01/24 12:39:34;;;;;;;;;25.60;25.20;;;;;;;;5234683;28;8774;-75
2022/01/24 12:42:38;;;;;;;;;14.40;13.80;;;;;;;;5236999;28;8795;-77
2022/01/24 12:48:18;;;;;;;;;19.40;19.40;;;;;;;;5235212;28;8810;-77
2022/01/24 12:50:51;;;;;;;;;16.40;15.80;;;;;;;;5235615;28;8779;-77
2022/01/24 12:53:40;;;;;;;;;39.20;38.80;;;;;;;;5272135;28;8774;-77
2022/01/24 12:56:13;;;;;;;;;23.25;21.75;;;;;;;;5254163;28;8963;-77
2022/01/24 12:58:46;;;;;;;;;24.60;24.20;;;;;;;;5233597;28;11478;-77
2022/01/24 13:01:17;;;;;;;;;28.20;27.40;;;;;;;;5250741;28;8790;-75
2022/01/24 13:04:11;;;;;;;;;48.80;44.60;;;;;;;;5236143;28;8826;-77
2022/01/24 13:06:44;;;;;;;;;30.80;28.40;;;;;;;;5233679;28;8919;-76
2022/01/24 13:09:19;;;;;;;;;48.80;42.00;;;;;;;;5233555;28;8770;-76
2022/01/24 13:12:00;;;;;;;;;21.80;21.80;;;;;;;;5233239;28;8775;-76
2022/01/24 13:14:56;;;;;;;;;19.00;19.00;;;;;;;;5233543;28;8909;-77
2022/01/24 13:20:52;;;;;;;;;19.00;18.00;;;;;;;;5233310;28;8787;-78
2022/01/24 13:23:23;;;;;;;;;22.80;21.00;;;;;;;;5250291;28;8818;-76
2022/01/24 13:25:54;;;;;;;;;28.40;28.40;;;;;;;;5238761;28;8783;-77
2022/01/24 13:28:25;;;;;;;;;15.60;13.00;;;;;;;;5237931;28;8793;-77
2022/01/24 13:31:02;;;;;;;;;15.60;15.60;;;;;;;;5237981;28;8802;-72
2022/01/24 13:33:51;;;;;;;;;17.20;17.20;;;;;;;;5271868;28;8789;-75
2022/01/24 13:36:22;;;;;;;;;27.60;24.60;;;;;;;;5236936;28;8794;-75
2022/01/24 13:38:53;;;;;;;;;30.00;29.50;;;;;;;;5236918;28;8787;-76
2022/01/24 13:41:24;;;;;;;;;30.80;22.80;;;;;;;;5236968;28;8929;-76
2022/01/24 13:43:58;;;;;;;;;26.75;26.50;;;;;;;;5236888;28;9532;-75
2022/01/24 13:46:30;;;;;;;;;19.40;19.40;;;;;;;;5236177;28;9492;-74
2022/01/24 13:49:04;;;;;;;;;40.80;37.40;;;;;;;;5235657;28;8799;-75
2022/01/24 13:51:41;;;;;;;;;27.00;23.60;;;;;;;;5252704;28;8809;-74
2022/01/24 13:58:35;;;;;;;;;29.60;28.00;;;;;;;;5269968;28;8750;-74
2022/01/24 14:01:06;;;;;;;;;26.80;24.40;;;;;;;;5252452;28;8802;-75
2022/01/24 14:03:37;;;;;;;;;18.25;16.25;;;;;;;;5218917;28;8924;-75
2022/01/24 14:06:16;;;;;;;;;46.75;44.50;;;;;;;;5235784;28;11535;-73
2022/01/24 14:08:47;;;;;;;;;18.40;17.60;;;;;;;;5219198;28;11408;-73
2022/01/24 14:11:18;;;;;;;;;21.20;21.20;;;;;;;;5235354;28;8767;-74
2022/01/24 14:14:01;;;;;;;;;15.80;15.80;;;;;;;;5269357;28;8971;-72
2022/01/24 14:19:10;;;;;;;;;16.60;16.60;;;;;;;;5251202;28;8806;-69
2022/01/24 14:21:41;;;;;;;;;20.60;20.60;;;;;;;;5252324;28;8787;-75
2022/01/24 14:24:12;;;;;;;;;14.50;13.75;;;;;;;;5252155;28;8849;-77
2022/01/24 14:26:47;;;;;;;;;21.00;21.00;;;;;;;;5251695;28;9731;-76
2022/01/24 14:29:19;;;;;;;;;27.00;27.00;;;;;;;;5218495;28;9995;-76
2022/01/24 14:32:13;;;;;;;;;18.40;18.00;;;;;;;;5252173;28;8770;-75
2022/01/24 14:34:44;;;;;;;;;10.60;10.60;;;;;;;;5251875;28;9449;-78
2022/01/24 14:37:14;;;;;;;;;21.50;21.00;;;;;;;;5234524;28;8854;-77
2022/01/24 14:39:47;;;;;;;;;21.25;21.00;;;;;;;;5251432;28;8795;-76
2022/01/24 14:42:34;;;;;;;;;8.60;8.60;;;;;;;;5268635;28;9482;-76
2022/01/24 14:45:05;;;;;;;;;18.60;17.20;;;;;;;;5234974;28;8818;-77
2022/01/24 14:47:35;;;;;;;;;19.75;18.25;;;;;;;;5267923;28;8883;-77
2022/01/24 14:50:07;;;;;;;;;16.00;13.80;;;;;;;;5234377;28;8810;-77
2022/01/24 14:52:38;;;;;;;;;24.40;22.80;;;;;;;;5233804;28;8916;-75
2022/01/24 14:55:09;;;;;;;;;17.40;16.60;;;;;;;;5234339;28;8778;-77
2022/01/24 14:57:39;;;;;;;;;8.00;7.75;;;;;;;;5233890;28;8790;-78
2022/01/24 15:00:11;;;;;;;;;18.00;18.00;;;;;;;;5234680;28;8897;-77
2022/01/24 15:02:41;;;;;;;;;17.00;17.00;;;;;;;;5234133;28;11457;-78
2022/01/24 15:05:12;;;;;;;;;12.25;10.50;;;;;;;;5234838;28;8821;-74
2022/01/24 15:08:02;;;;;;;;;15.60;14.20;;;;;;;;5251419;28;11085;-78
2022/01/24 15:10:35;;;;;;;;;27.00;24.00;;;;;;;;5234326;28;9446;-77
2022/01/24 15:13:08;;;;;;;;;17.60;17.60;;;;;;;;5251449;28;11486;-78
2022/01/24 15:15:48;;;;;;;;;21.80;19.40;;;;;;;;5234653;28;8766;-78
2022/01/24 15:24:22;;;;;;;;;26.20;24.40;;;;;;;;5267536;28;8806;-77
2022/01/24 15:26:49;;;;;;;;;9.00;9.00;;;;;;;;5233269;28;9509;-77
2022/01/24 15:29:20;;;;;;;;;12.00;12.00;;;;;;;;5250292;28;8790;-79
2022/01/24 15:31:51;;;;;;;;;23.20;23.20;;;;;;;;5250053;28;8775;-77
2022/01/24 15:34:23;;;;;;;;;19.00;19.00;;;;;;;;5249586;28;8794;-78
2022/01/24 15:36:54;;;;;;;;;7.40;6.40;;;;;;;;5267632;28;8901;-77
2022/01/24 15:44:20;;;;;;;;;12.20;12.20;;;;;;;;5268404;28;8921;-73
2022/01/24 15:47:02;;;;;;;;;9.60;8.00;;;;;;;;5233358;28;8790;-79
2022/01/24 15:49:33;;;;;;;;;24.20;21.20;;;;;;;;5250300;28;8774;-74
2022/01/24 15:52:22;;;;;;;;;20.60;19.80;;;;;;;;5249875;28;9517;-78
2022/01/24 15:54:55;;;;;;;;;13.00;10.00;;;;;;;;5233485;28;8787;-76
2022/01/24 15:57:41;;;;;;;;;18.00;18.00;;;;;;;;5251310;28;11434;-75
2022/01/24 16:00:21;;;;;;;;;19.00;17.80;;;;;;;;5234718;28;8937;-75
2022/01/24 16:03:11;;;;;;;;;18.20;16.80;;;;;;;;5250482;28;9453;-77
2022/01/24 16:05:42;;;;;;;;;16.40;14.20;;;;;;;;5233167;28;8766;-74
2022/01/24 16:08:16;;;;;;;;;12.75;12.00;;;;;;;;5268240;28;8872;-74
2022/01/24 16:10:47;;;;;;;;;15.40;15.00;;;;;;;;5250248;28;9674;-74
2022/01/24 16:13:20;;;;;;;;;13.50;12.75;;;;;;;;5233568;28;8892;-76
2022/01/24 16:15:52;;;;;;;;;8.20;8.20;;;;;;;;5233509;28;8778;-71
2022/01/24 16:18:23;;;;;;;;;19.80;19.40;;;;;;;;5233012;28;8803;-74
2022/01/24 16:23:44;;;;;;;;;14.60;14.60;;;;;;;;5249938;28;8998;-73
2022/01/24 16:30:58;;;;;;;;;23.60;23.40;;;;;;;;5267661;28;8715;-75
2022/01/24 16:33:29;;;;;;;;;11.20;10.40;;;;;;;;5250178;28;8794;-76
2022/01/24 16:40:30;;;;;;;;;31.00;30.20;;;;;;;;5267550;28;8714;-76
2022/01/24 16:48:38;;;;;;;;;17.80;17.00;;;;;;;;5249368;28;8819;-75
2022/01/24 16:51:11;;;;;;;;;16.20;16.20;;;;;;;;5232625;28;9472;-75
2022/01/24 16:53:44;;;;;;;;;13.00;13.00;;;;;;;;5249073;28;8775;-75
2022/01/24 16:56:15;;;;;;;;;12.40;12.40;;;;;;;;5249395;28;8790;-75
2022/01/24 16:58:47;;;;;;;;;12.75;12.00;;;;;;;;5265583;28;9473;-75
2022/01/24 17:01:19;;;;;;;;;9.60;9.60;;;;;;;;5249391;28;10027;-76
2022/01/24 17:03:50;;;;;;;;;14.20;14.20;;;;;;;;5249022;28;8806;-77
2022/01/24 17:06:22;;;;;;;;;2.60;2.60;;;;;;;;5267184;28;8802;-74
2022/01/24 17:08:54;;;;;;;;;6.40;6.20;;;;;;;;5249010;28;8794;-73
2022/01/24 17:11:27;;;;;;;;;9.40;9.00;;;;;;;;5249574;28;8795;-74
2022/01/24 17:14:18;;;;;;;;;10.80;10.80;;;;;;;;5249144;28;8937;-75
2022/01/24 17:16:49;;;;;;;;;6.00;6.00;;;;;;;;5249343;28;8774;-72
2022/01/24 17:23:50;;;;;;;;;9.20;9.20;;;;;;;;5266806;28;8774;-75
2022/01/24 17:30:44;;;;;;;;;13.80;13.80;;;;;;;;5266791;28;8734;-73
2022/01/24 17:33:16;;;;;;;;;23.00;23.00;;;;;;;;5231871;28;8779;-75
2022/01/24 17:35:47;;;;;;;;;12.80;12.80;;;;;;;;5248347;28;8824;-76
2022/01/24 17:38:18;;;;;;;;;14.25;13.50;;;;;;;;5248434;28;8774;-75
2022/01/24 17:40:49;;;;;;;;;21.40;20.60;;;;;;;;5231939;28;11539;-74
2022/01/24 17:43:21;;;;;;;;;27.20;24.00;;;;;;;;5215747;28;8827;-74
2022/01/24 17:45:54;;;;;;;;;20.40;19.60;;;;;;;;5211350;28;8777;-72
2022/01/24 17:48:25;;;;;;;;;15.00;13.80;;;;;;;;5228120;28;8808;-79
2022/01/24 17:50:56;;;;;;;;;14.20;14.20;;;;;;;;5211620;28;8804;-74
2022/01/24 17:53:28;;;;;;;;;13.25;12.25;;;;;;;;5227833;28;8896;-75
2022/01/24 17:56:00;;;;;;;;;19.00;19.00;;;;;;;;5211414;28;9671;-75
2022/01/24 17:58:31;;;;;;;;;12.60;12.00;;;;;;;;5211224;28;8793;-75
2022/01/24 18:01:02;;;;;;;;;24.00;24.00;;;;;;;;5227574;28;8907;-75
2022/01/24 18:03:32;;;;;;;;;21.00;19.60;;;;;;;;5211062;28;8809;-76